CZUM/ZUM METAR and TAF weather

Enter ICAO airport designator
Station Type Date Time Source
CZUM METAR 2019/04/25 21:00 UTC NOAA

CZUM 252100Z AUTO 15008KT 9SM CLR 05/M11 A2991 RMK SLP158


Station Type Date Time Source
CZUM Decoded METAR 2019/04/25 21:00 UTC NOAA

Churchill Falls, Nfld., Canada (CZUM) 53-33N 064-06W 440M
Apr 25, 2019 - 05:00 PM EDT / 2019.04.25 2100 UTC
Wind: from the SSE (150 degrees) at 9 MPH (8 KT):0
Visibility: 9 mile(s):0
Sky conditions: clear
Temperature: 41 F (5 C)
Dew Point: 12 F (-11 C)
Relative Humidity: 30%
Pressure (altimeter): 29.91 in. Hg (1012 hPa)
ob: CZUM 252100Z AUTO 15008KT 9SM CLR 05/M11 A2991 RMK SLP158
cycle: 21

Station Type Date Time Source
CZUM TAF 2019/04/25 20:45 UTC NOAA

TAF CZUM 251944Z 2520/2608 12008KT P6SM BKN200
FM260000 11005KT P6SM OVC100
FM260500 11005KT P6SM BKN025 OVC060
TEMPO 2605/2608 5SM -SN BKN020
RMK FCST BASED ON AUTO OBS. NXT FCST BY 260200Z

Example: see airport list